Time;durP1;ratioP1;P1;durP2;ratioP2;P2;SDS_P1;SDS_P2;PMS_P1;PMS_P2;Temp;Humidity;BMP_temperature;BMP_pressure;BME280_temperature;BME280_humidity;BME280_pressure;Samples;Min_cycle;Max_cycle;Signal;HPM_P1;HPM_P2
2021/11/12 00:03:19;;;;;;;28.85;21.20;;;5.30;99.90;;;;;;5081818;28;20680;-81
2021/11/12 00:13:59;;;;;;;30.73;22.10;;;4.80;99.90;;;;;;5079538;28;20588;-80
2021/11/12 00:16:27;;;;;;;29.98;20.88;;;4.80;99.90;;;;;;5078755;28;20292;-80
2021/11/12 00:18:54;;;;;;;25.40;19.77;;;4.70;99.90;;;;;;5077837;28;20689;-80
2021/11/12 00:21:21;;;;;;;28.50;20.92;;;4.80;99.90;;;;;;5078485;28;20205;-80
2021/11/12 00:23:48;;;;;;;28.83;21.58;;;4.60;99.90;;;;;;5077751;28;20229;-80
2021/11/12 00:26:17;;;;;;;31.10;21.15;;;4.70;99.90;;;;;;5076985;28;20225;-80
2021/11/12 00:28:51;;;;;;;27.67;19.33;;;4.80;99.90;;;;;;5076007;28;20288;-80
2021/11/12 00:31:25;;;;;;;30.65;22.45;;;4.70;99.90;;;;;;5082703;28;20186;-80
2021/11/12 00:36:44;;;;;;;33.80;22.25;;;4.70;99.90;;;;;;5060600;28;20213;-80
2021/11/12 00:39:16;;;;;;;34.85;22.27;;;4.90;99.90;;;;;;5078248;28;20190;-80
2021/11/12 00:41:50;;;;;;;33.10;23.27;;;4.80;99.90;;;;;;5080191;28;20194;-80
2021/11/12 00:44:23;;;;;;;36.38;24.73;;;4.90;99.90;;;;;;5087185;28;20214;-80
2021/11/12 00:46:52;;;;;;;31.73;23.40;;;4.90;99.90;;;;;;5080758;28;20305;-80
2021/11/12 00:49:22;;;;;;;32.65;23.08;;;4.60;99.90;;;;;;5078015;28;20322;-80
2021/11/12 00:51:51;;;;;;;37.63;25.83;;;4.70;99.90;;;;;;5077528;28;20300;-80
2021/11/12 00:54:19;;;;;;;34.17;23.88;;;4.90;99.90;;;;;;5076554;28;20331;-80
2021/11/12 00:56:48;;;;;;;32.70;23.77;;;4.60;99.90;;;;;;5083973;28;20221;-81
2021/11/12 00:59:16;;;;;;;30.13;22.20;;;4.50;99.90;;;;;;5086891;28;20240;-80
2021/11/12 01:01:44;;;;;;;35.55;23.08;;;4.70;99.90;;;;;;5078204;28;20212;-81
2021/11/12 01:04:14;;;;;;;35.63;24.08;;;4.70;99.90;;;;;;5083461;28;20266;-80
2021/11/12 01:06:42;;;;;;;35.22;24.17;;;4.70;99.90;;;;;;5082639;28;20226;-80
2021/11/12 01:09:11;;;;;;;42.17;26.23;;;4.70;99.90;;;;;;5080954;28;20232;-80
2021/11/12 01:11:39;;;;;;;34.25;23.80;;;4.60;99.90;;;;;;5077107;28;20209;-81
2021/11/12 01:14:08;;;;;;;35.58;23.92;;;4.70;99.90;;;;;;5077187;28;20596;-80
2021/11/12 01:16:35;;;;;;;31.50;22.00;;;4.70;99.90;;;;;;5077180;28;20243;-80
2021/11/12 01:19:02;;;;;;;32.92;22.75;;;4.70;99.90;;;;;;5077336;28;20533;-81
2021/11/12 01:21:29;;;;;;;41.50;22.30;;;4.70;99.90;;;;;;5077725;28;20212;-81
2021/11/12 01:23:57;;;;;;;31.35;22.75;;;4.90;99.90;;;;;;5077638;28;20292;-80
2021/11/12 01:26:25;;;;;;;33.05;23.05;;;4.70;99.90;;;;;;5077353;28;20234;-80
2021/11/12 01:28:52;;;;;;;34.72;23.77;;;5.00;99.90;;;;;;5078396;28;20205;-80
2021/11/12 01:31:26;;;;;;;40.42;24.92;;;4.80;99.90;;;;;;5077508;28;20281;-80
2021/11/12 01:33:53;;;;;;;35.08;24.65;;;4.60;99.90;;;;;;5077231;28;20213;-80
2021/11/12 01:36:28;;;;;;;39.45;25.40;;;4.50;99.90;;;;;;5076759;28;20257;-80
2021/11/12 01:38:58;;;;;;;36.58;23.20;;;4.60;99.90;;;;;;5076345;28;20199;-78
2021/11/12 01:41:25;;;;;;;40.47;25.38;;;4.60;99.90;;;;;;5075592;28;20308;-78
2021/11/12 01:43:53;;;;;;;50.35;28.02;;;4.80;99.90;;;;;;5075481;28;20219;-79
2021/11/12 01:46:32;;;;;;;43.03;26.15;;;4.70;99.90;;;;;;5075697;28;20656;-80
2021/11/12 01:51:54;;;;;;;42.88;27.13;;;4.60;99.90;;;;;;5077524;28;20281;-79
2021/11/12 02:00:10;;;;;;;34.47;23.63;;;4.40;99.90;;;;;;5081968;28;20201;-79
2021/11/12 02:02:39;;;;;;;31.33;22.95;;;4.50;99.90;;;;;;5076916;28;20190;-79
2021/11/12 02:05:07;;;;;;;32.05;21.85;;;4.30;99.90;;;;;;5076481;28;20281;-79
2021/11/12 02:07:36;;;;;;;32.67;22.10;;;4.40;99.90;;;;;;5076504;28;20228;-79
2021/11/12 02:10:07;;;;;;;33.38;21.83;;;4.30;99.90;;;;;;5076817;28;20319;-78
2021/11/12 02:12:45;;;;;;;31.42;23.23;;;4.50;99.90;;;;;;5081086;28;20674;-78
2021/11/12 02:15:12;;;;;;;30.80;22.08;;;4.50;99.90;;;;;;5076692;28;20213;-79
2021/11/12 02:17:45;;;;;;;29.73;21.73;;;4.40;99.90;;;;;;5078919;28;20306;-79
2021/11/12 02:20:17;;;;;;;30.55;21.42;;;4.40;99.90;;;;;;5076259;28;20194;-79
2021/11/12 02:22:47;;;;;;;32.78;22.20;;;4.40;99.90;;;;;;5090108;28;20202;-79
2021/11/12 02:25:15;;;;;;;28.33;21.17;;;4.30;99.90;;;;;;5093194;28;20185;-79
2021/11/12 02:27:49;;;;;;;33.50;22.85;;;4.60;99.90;;;;;;5077149;28;20225;-79
2021/11/12 02:30:22;;;;;;;32.17;21.73;;;4.30;99.90;;;;;;5076047;28;20284;-79
2021/11/12 02:32:59;;;;;;;36.40;24.08;;;4.20;99.90;;;;;;5076705;28;20654;-79
2021/11/12 02:35:27;;;;;;;26.98;20.90;;;4.40;99.90;;;;;;5078009;28;20631;-79
2021/11/12 02:37:55;;;;;;;27.55;20.30;;;4.40;99.90;;;;;;5088181;28;20206;-80
2021/11/12 02:40:22;;;;;;;26.10;19.90;;;4.20;99.90;;;;;;5079085;28;20594;-79
2021/11/12 02:42:49;;;;;;;26.40;19.15;;;4.50;99.90;;;;;;5080705;28;20210;-79
2021/11/12 02:45:16;;;;;;;32.83;21.17;;;4.40;99.90;;;;;;5076470;28;20284;-79
2021/11/12 02:47:43;;;;;;;28.23;20.33;;;4.60;99.90;;;;;;5076315;28;20312;-79
2021/11/12 02:50:11;;;;;;;27.88;19.92;;;4.80;99.90;;;;;;5083241;28;20277;-79
2021/11/12 02:52:39;;;;;;;28.05;19.77;;;4.50;99.90;;;;;;5093213;28;20198;-79
2021/11/12 02:55:08;;;;;;;28.48;19.00;;;4.60;99.90;;;;;;5091445;28;20255;-80
2021/11/12 02:57:36;;;;;;;25.13;18.55;;;4.70;99.90;;;;;;5076899;28;20735;-80
2021/11/12 03:00:05;;;;;;;26.88;21.05;;;4.30;99.90;;;;;;5075839;28;20303;-79
2021/11/12 03:02:32;;;;;;;26.60;18.98;;;4.50;99.90;;;;;;5080293;28;20554;-79
2021/11/12 03:04:59;;;;;;;27.38;19.27;;;4.40;99.90;;;;;;5076567;28;20205;-80
2021/11/12 03:07:27;;;;;;;26.33;20.27;;;4.40;99.90;;;;;;5076467;28;20233;-79
2021/11/12 03:09:54;;;;;;;29.10;21.58;;;4.50;99.90;;;;;;5080632;28;20519;-79
2021/11/12 03:12:22;;;;;;;24.83;19.13;;;4.60;99.90;;;;;;5079698;28;20620;-79
2021/11/12 03:14:50;;;;;;;26.23;19.00;;;4.60;99.90;;;;;;5080179;28;20260;-80
2021/11/12 03:17:17;;;;;;;26.35;19.90;;;4.40;99.90;;;;;;5079840;28;20275;-80
2021/11/12 03:19:45;;;;;;;30.80;21.00;;;4.40;99.90;;;;;;5080291;28;20210;-79
2021/11/12 03:22:16;;;;;;;25.38;19.23;;;4.40;99.90;;;;;;5082814;28;20341;-79
2021/11/12 03:24:46;;;;;;;30.60;19.23;;;4.20;99.90;;;;;;5082274;28;20641;-79
2021/11/12 03:27:19;;;;;;;28.08;18.77;;;4.50;99.90;;;;;;5081758;28;20225;-79
2021/11/12 04:03:08;;;;;;;34.72;24.23;;;4.30;99.90;;;;;;5070958;28;20201;-80
2021/11/12 04:30:31;;;;;;;42.03;25.80;;;4.30;99.90;;;;;;5055251;28;20202;-80
2021/11/12 05:12:24;;;;;;;43.90;26.42;;;4.20;99.90;;;;;;5054873;28;20272;-77
2021/11/12 05:34:33;;;;;;;32.65;21.73;;;4.20;99.90;;;;;;5055827;28;20701;-78
2021/11/12 05:45:29;;;;;;;32.80;21.27;;;4.00;99.90;;;;;;5055103;28;20252;-77
2021/11/12 05:56:13;;;;;;;31.10;20.85;;;4.00;99.90;;;;;;5055103;28;20216;-78
2021/11/12 05:58:41;;;;;;;31.70;21.67;;;4.10;99.90;;;;;;5055021;28;20247;-78
2021/11/12 06:01:08;;;;;;;31.38;21.75;;;3.90;99.90;;;;;;5055509;28;20581;-78
2021/11/12 06:03:35;;;;;;;32.97;21.60;;;4.00;99.90;;;;;;5055483;28;20613;-78
2021/11/12 06:06:02;;;;;;;38.08;22.77;;;3.90;99.90;;;;;;5055335;28;20237;-79
2021/11/12 06:08:29;;;;;;;32.67;21.60;;;4.00;99.90;;;;;;5055261;28;20694;-78
2021/11/12 06:10:56;;;;;;;31.77;21.52;;;4.10;99.90;;;;;;5055883;28;20214;-78
2021/11/12 06:13:23;;;;;;;35.50;22.33;;;3.90;99.90;;;;;;5057683;28;20226;-78
2021/11/12 06:15:51;;;;;;;34.65;21.63;;;4.00;99.90;;;;;;5055348;28;20252;-78
2021/11/12 06:18:18;;;;;;;33.80;22.05;;;4.00;99.90;;;;;;5055182;28;20206;-78
2021/11/12 06:20:45;;;;;;;33.30;21.85;;;4.00;99.90;;;;;;5055972;28;20216;-78
2021/11/12 06:23:12;;;;;;;33.28;22.45;;;4.10;99.90;;;;;;5055166;28;20230;-78
2021/11/12 06:25:39;;;;;;;36.10;22.63;;;4.10;99.90;;;;;;5055410;28;20198;-78
2021/11/12 06:28:06;;;;;;;34.05;22.67;;;4.30;99.90;;;;;;5055014;28;20210;-79
2021/11/12 06:30:33;;;;;;;30.65;19.88;;;4.10;99.90;;;;;;5055206;28;20224;-78
2021/11/12 06:33:01;;;;;;;33.58;21.80;;;4.30;99.90;;;;;;5054773;28;20210;-78
2021/11/12 06:35:28;;;;;;;37.17;22.25;;;4.40;99.90;;;;;;5057482;28;20222;-78
2021/11/12 06:37:55;;;;;;;29.45;22.05;;;4.10;99.90;;;;;;5060164;28;20214;-78
2021/11/12 06:40:22;;;;;;;36.92;22.52;;;4.00;99.90;;;;;;5058055;28;20217;-78
2021/11/12 06:43:02;;;;;;;34.88;23.17;;;4.20;99.90;;;;;;5056659;28;20210;-76
2021/11/12 06:51:00;;;;;;;36.05;23.90;;;4.20;99.90;;;;;;5057403;28;20194;-78
2021/11/12 06:53:26;;;;;;;34.35;22.23;;;4.00;99.90;;;;;;5060863;28;20238;-78
2021/11/12 06:55:56;;;;;;;41.25;24.65;;;4.00;99.90;;;;;;5057433;28;20222;-77
2021/11/12 06:58:24;;;;;;;35.97;21.77;;;4.10;99.90;;;;;;5059499;28;20224;-78
2021/11/12 07:00:51;;;;;;;35.97;24.13;;;3.90;99.90;;;;;;5053965;28;20229;-77
2021/11/12 07:03:19;;;;;;;33.63;23.52;;;3.90;99.90;;;;;;5053706;28;20321;-77
2021/11/12 07:05:46;;;;;;;34.22;24.60;;;3.90;99.90;;;;;;5062381;28;20229;-78
2021/11/12 07:08:14;;;;;;;34.70;23.65;;;4.00;99.90;;;;;;5056454;28;20269;-79
2021/11/12 07:10:41;;;;;;;37.53;22.75;;;4.40;99.90;;;;;;5055666;28;20762;-78
2021/11/12 07:13:08;;;;;;;38.10;24.35;;;4.40;99.90;;;;;;5055767;28;20264;-78
2021/11/12 07:15:35;;;;;;;33.65;22.90;;;4.20;99.90;;;;;;5055557;28;20249;-77
2021/11/12 07:18:02;;;;;;;33.95;23.60;;;4.30;99.90;;;;;;5055643;28;20208;-78
2021/11/12 07:20:30;;;;;;;37.40;24.77;;;4.40;99.90;;;;;;5055753;28;20209;-79
2021/11/12 07:22:57;;;;;;;39.47;24.98;;;4.10;99.90;;;;;;5055435;28;20206;-78
2021/11/12 07:25:24;;;;;;;37.78;23.52;;;4.10;99.90;;;;;;5055072;28;20203;-78
2021/11/12 07:27:51;;;;;;;30.67;22.52;;;4.50;99.90;;;;;;5054974;28;20213;-78
2021/11/12 07:30:20;;;;;;;34.33;22.05;;;4.30;99.90;;;;;;5054932;28;20217;-78
2021/11/12 07:32:50;;;;;;;36.70;23.20;;;4.20;99.90;;;;;;5054188;28;20206;-77
2021/11/12 07:35:21;;;;;;;37.00;23.52;;;4.30;99.90;;;;;;5052857;28;20304;-77
2021/11/12 07:37:56;;;;;;;35.35;23.17;;;4.30;99.90;;;;;;5053193;28;20191;-77
2021/11/12 07:40:30;;;;;;;33.90;20.77;;;4.30;99.90;;;;;;5053528;28;20635;-78
2021/11/12 07:43:18;;;;;;;32.42;21.65;;;4.60;99.90;;;;;;5053169;28;20542;-78
2021/11/12 07:45:56;;;;;;;41.25;25.35;;;4.60;99.90;;;;;;5052527;28;20190;-77
2021/11/12 07:48:24;;;;;;;40.35;25.20;;;4.50;99.90;;;;;;5053121;28;20596;-78
2021/11/12 07:50:50;;;;;;;37.95;25.00;;;4.20;99.90;;;;;;5056698;28;20210;-78
2021/11/12 07:53:19;;;;;;;41.28;23.23;;;4.30;99.90;;;;;;5055149;28;20283;-78
2021/11/12 07:55:45;;;;;;;37.83;21.58;;;4.30;99.90;;;;;;5057006;28;20642;-78
2021/11/12 07:58:13;;;;;;;37.90;22.52;;;4.40;99.90;;;;;;5058686;28;20210;-78
2021/11/12 08:00:40;;;;;;;30.13;21.45;;;4.30;99.90;;;;;;5059182;28;20597;-79
2021/11/12 08:03:07;;;;;;;34.15;22.77;;;4.30;99.90;;;;;;5058567;28;20221;-77
2021/11/12 08:05:38;;;;;;;29.38;20.45;;;4.10;99.90;;;;;;5056384;28;20205;-75
2021/11/12 08:08:09;;;;;;;29.88;20.73;;;4.10;99.90;;;;;;5055646;28;20582;-76
2021/11/12 08:10:46;;;;;;;31.58;20.17;;;4.10;99.90;;;;;;5055720;28;20198;-76
2021/11/12 08:13:17;;;;;;;30.65;20.73;;;4.30;99.90;;;;;;5055876;28;20244;-76
2021/11/12 08:15:50;;;;;;;32.08;21.52;;;4.30;99.90;;;;;;5055471;28;20220;-76
2021/11/12 08:18:34;;;;;;;27.50;20.23;;;4.40;99.90;;;;;;5057607;28;20190;-77
2021/11/12 08:21:04;;;;;;;36.67;22.10;;;4.70;99.90;;;;;;5057396;28;20718;-77
2021/11/12 08:23:42;;;;;;;28.80;20.15;;;4.40;99.90;;;;;;5057866;28;20242;-77
2021/11/12 08:26:13;;;;;;;29.52;20.83;;;4.70;99.90;;;;;;5056646;28;20293;-78
2021/11/12 08:29:06;;;;;;;31.20;21.90;;;4.70;99.90;;;;;;5059758;28;20194;-78
2021/11/12 08:31:39;;;;;;;26.35;20.35;;;4.80;99.90;;;;;;5057725;28;20202;-79
2021/11/12 08:34:09;;;;;;;29.73;20.80;;;5.00;99.90;;;;;;5058220;28;20344;-79
2021/11/12 08:36:48;;;;;;;30.70;22.27;;;4.60;99.90;;;;;;5058735;28;20264;-79
2021/11/12 08:39:26;;;;;;;30.45;21.40;;;4.70;99.90;;;;;;5058227;28;20194;-77
2021/11/12 08:41:57;;;;;;;28.40;21.60;;;4.40;99.90;;;;;;5056371;28;20193;-77
2021/11/12 08:44:29;;;;;;;30.55;21.27;;;4.60;99.90;;;;;;5055708;28;20324;-76
2021/11/12 08:47:04;;;;;;;34.20;24.05;;;4.70;99.90;;;;;;5054628;28;20647;-77
2021/11/12 08:49:33;;;;;;;31.90;22.20;;;4.60;99.90;;;;;;5055516;28;20197;-78
2021/11/12 08:52:01;;;;;;;37.72;25.58;;;4.30;99.90;;;;;;5056665;28;20210;-78
2021/11/12 08:54:31;;;;;;;34.55;24.05;;;4.40;99.90;;;;;;5057483;28;20320;-77
2021/11/12 08:56:59;;;;;;;38.75;26.98;;;4.20;99.90;;;;;;5056007;28;20206;-77
2021/11/12 08:59:26;;;;;;;35.80;23.65;;;4.30;99.90;;;;;;5058948;28;20310;-81
2021/11/12 09:01:54;;;;;;;38.58;25.58;;;4.40;99.90;;;;;;5061137;28;20268;-79
2021/11/12 09:04:21;;;;;;;36.22;25.25;;;4.40;99.90;;;;;;5060233;28;20249;-78
2021/11/12 09:06:47;;;;;;;35.05;24.38;;;4.50;99.90;;;;;;5058968;28;20285;-79
2021/11/12 09:09:15;;;;;;;33.17;24.40;;;4.60;99.90;;;;;;5059577;28;20198;-82
2021/11/12 09:11:42;;;;;;;34.70;25.38;;;4.60;99.90;;;;;;5059043;28;20293;-79
2021/11/12 09:14:15;;;;;;;34.08;25.30;;;4.60;99.90;;;;;;5060439;28;20226;-78
2021/11/12 09:16:44;;;;;;;31.42;23.67;;;4.80;99.90;;;;;;5058419;28;20214;-80
2021/11/12 09:19:13;;;;;;;32.28;23.60;;;4.80;99.90;;;;;;5061040;28;20214;-79
2021/11/12 09:21:40;;;;;;;34.70;23.42;;;4.80;99.90;;;;;;5060526;28;20293;-79
2021/11/12 09:24:07;;;;;;;31.45;22.35;;;4.70;99.90;;;;;;5060928;28;20738;-79
2021/11/12 09:26:36;;;;;;;36.05;24.90;;;5.00;99.90;;;;;;5062627;28;20209;-79
2021/11/12 09:29:03;;;;;;;36.63;24.50;;;5.20;99.90;;;;;;5060902;28;20282;-77
2021/11/12 09:31:32;;;;;;;32.85;23.63;;;5.00;99.90;;;;;;5057787;28;20624;-77
2021/11/12 09:33:59;;;;;;;28.10;21.08;;;5.30;99.90;;;;;;5055993;28;20714;-78
2021/11/12 09:36:26;;;;;;;35.28;21.55;;;5.40;99.90;;;;;;5056281;28;20225;-79
2021/11/12 09:38:53;;;;;;;40.55;25.77;;;5.70;99.90;;;;;;5056126;28;20209;-77
2021/11/12 09:41:20;;;;;;;45.25;25.58;;;5.50;99.90;;;;;;5055286;28;20289;-78
2021/11/12 09:43:48;;;;;;;40.05;25.23;;;5.50;99.90;;;;;;5057590;28;20651;-77
2021/11/12 09:46:15;;;;;;;42.00;25.33;;;5.60;99.90;;;;;;5056933;28;20336;-77
2021/11/12 09:48:44;;;;;;;41.58;25.48;;;5.40;99.90;;;;;;5063427;28;20226;-77
2021/11/12 09:51:12;;;;;;;40.05;24.20;;;5.70;99.90;;;;;;5063862;28;20266;-77
2021/11/12 09:53:39;;;;;;;44.13;27.90;;;5.60;99.90;;;;;;5058129;28;20226;-77
2021/11/12 09:56:07;;;;;;;38.83;27.40;;;5.50;99.90;;;;;;5062276;28;20316;-77
2021/11/12 09:58:35;;;;;;;34.00;23.55;;;5.40;99.90;;;;;;5060779;28;20202;-78
2021/11/12 10:01:02;;;;;;;39.83;27.88;;;5.20;99.90;;;;;;5056164;28;20269;-78
2021/11/12 10:03:33;;;;;;;41.45;26.83;;;5.30;99.90;;;;;;5056705;28;20257;-77
2021/11/12 10:06:16;;;;;;;43.20;27.02;;;5.30;99.90;;;;;;5055573;28;20190;-77
2021/11/12 10:08:43;;;;;;;47.38;28.23;;;5.40;99.90;;;;;;5056447;28;20273;-78
2021/11/12 10:11:22;;;;;;;46.50;28.50;;;5.70;99.90;;;;;;5056451;28;20305;-77
2021/11/12 10:13:52;;;;;;;49.17;28.08;;;5.60;99.90;;;;;;5056447;28;20251;-77
2021/11/12 10:16:36;;;;;;;46.15;25.73;;;5.70;99.90;;;;;;5056464;28;20268;-77
2021/11/12 10:19:08;;;;;;;42.97;23.58;;;5.70;99.90;;;;;;5054204;28;20539;-77
2021/11/12 10:21:37;;;;;;;42.45;25.83;;;5.80;99.90;;;;;;5054706;28;20248;-77
2021/11/12 10:24:08;;;;;;;45.33;27.60;;;6.00;99.90;;;;;;5053656;28;20320;-77
2021/11/12 10:26:37;;;;;;;39.53;28.17;;;5.80;99.90;;;;;;5070233;22;20234;-79
2021/11/12 10:29:10;;;;;;;38.75;25.17;;;5.90;99.90;;;;;;5059188;28;20206;-80
2021/11/12 10:31:43;;;;;;;48.80;27.85;;;5.80;99.90;;;;;;5058646;28;20235;-79
2021/11/12 10:34:12;;;;;;;39.67;25.17;;;5.80;99.90;;;;;;5056013;28;20217;-79
2021/11/12 10:36:59;;;;;;;40.05;25.92;;;5.80;99.90;;;;;;5058704;28;20359;-80
2021/11/12 10:39:33;;;;;;;42.03;24.75;;;5.90;99.90;;;;;;5059317;28;20190;-79
2021/11/12 10:42:01;;;;;;;40.90;26.88;;;5.80;99.90;;;;;;5058716;28;20270;-79
2021/11/12 10:44:28;;;;;;;41.95;29.10;;;5.70;99.90;;;;;;5057187;28;20590;-79
2021/11/12 10:46:55;;;;;;;46.28;27.27;;;5.60;99.90;;;;;;5058138;28;20308;-79
2021/11/12 10:49:27;;;;;;;47.30;28.83;;;6.10;99.90;;;;;;5058017;28;20241;-78
2021/11/12 10:51:57;;;;;;;42.95;29.98;;;6.00;99.90;;;;;;5062447;28;20198;-79
2021/11/12 10:54:47;;;;;;;42.30;29.40;;;5.80;99.90;;;;;;5063618;28;20202;-80
2021/11/12 10:57:14;;;;;;;45.28;29.05;;;5.90;99.90;;;;;;5059864;28;20355;-79
2021/11/12 11:00:07;;;;;;;41.47;28.48;;;6.00;99.90;;;;;;5058364;28;20309;-83
2021/11/12 11:02:38;;;;;;;40.58;27.05;;;5.90;99.90;;;;;;5058578;28;20222;-83
2021/11/12 11:05:08;;;;;;;37.03;25.58;;;6.20;99.90;;;;;;5058301;28;20186;-83
2021/11/12 11:07:37;;;;;;;42.65;27.38;;;6.30;99.90;;;;;;5059436;28;20231;-83
2021/11/12 11:10:06;;;;;;;39.22;25.38;;;6.20;99.90;;;;;;5060414;28;20619;-87
2021/11/12 11:12:39;;;;;;;37.45;26.98;;;6.20;99.90;;;;;;5058213;28;20274;-87
2021/11/12 11:15:23;;;;;;;47.30;28.80;;;6.30;99.90;;;;;;5058206;28;20296;-87
2021/11/12 11:17:52;;;;;;;48.80;28.42;;;6.20;99.90;;;;;;5059069;28;20273;-87
2021/11/12 11:20:22;;;;;;;39.92;26.65;;;6.30;99.90;;;;;;5063080;28;20210;-87
2021/11/12 11:22:57;;;;;;;39.85;27.42;;;6.30;99.90;;;;;;5058574;28;20206;-87
2021/11/12 11:25:26;;;;;;;43.35;27.50;;;6.70;99.90;;;;;;5060754;28;20279;-87
2021/11/12 11:27:55;;;;;;;38.65;26.52;;;6.50;99.90;;;;;;5066148;28;20214;-87
2021/11/12 11:30:22;;;;;;;41.45;28.10;;;6.60;99.90;;;;;;5079742;28;20285;-87
2021/11/12 11:32:50;;;;;;;50.15;27.85;;;6.80;99.90;;;;;;5078429;28;20217;-87
2021/11/12 11:35:19;;;;;;;39.42;26.38;;;6.90;99.90;;;;;;5078255;28;20217;-87
2021/11/12 11:37:47;;;;;;;43.88;30.52;;;6.80;99.90;;;;;;5078455;28;20264;-87
2021/11/12 11:40:16;;;;;;;40.10;29.35;;;6.50;99.90;;;;;;5070254;28;20225;-88
2021/11/12 11:42:44;;;;;;;38.53;29.05;;;6.60;99.90;;;;;;5066065;28;20217;-87
2021/11/12 11:45:12;;;;;;;37.50;24.75;;;6.50;99.90;;;;;;5064306;28;20237;-88
2021/11/12 11:47:42;;;;;;;42.60;28.60;;;6.60;99.90;;;;;;5062494;28;20287;-89
2021/11/12 11:50:32;;;;;;;43.47;30.05;;;6.60;99.90;;;;;;5071414;28;20238;-88
2021/11/12 11:53:21;;;;;;;46.17;30.55;;;6.50;99.90;;;;;;5063865;28;20665;-87
2021/11/12 11:55:49;;;;;;;42.67;30.45;;;6.60;99.90;;;;;;5065738;28;20222;-87
2021/11/12 11:58:39;;;;;;;48.60;30.45;;;6.50;99.90;;;;;;5065571;28;20233;-88
2021/11/12 12:01:28;;;;;;;42.47;29.90;;;6.60;99.90;;;;;;5064446;28;20620;-88
2021/11/12 12:04:30;;;;;;;46.95;30.50;;;6.70;99.90;;;;;;5063581;28;20201;-88
2021/11/12 12:07:29;;;;;;;43.45;31.10;;;6.60;99.90;;;;;;5067806;28;20230;-88
2021/11/12 12:10:00;;;;;;;45.53;30.55;;;6.60;99.90;;;;;;5076064;28;20195;-88
2021/11/12 12:12:46;;;;;;;42.85;29.77;;;6.60;99.90;;;;;;5070280;28;20199;-88
2021/11/12 12:15:46;;;;;;;37.30;27.52;;;6.70;99.90;;;;;;5065208;28;20326;-88
2021/11/12 12:18:26;;;;;;;37.33;24.00;;;6.70;99.90;;;;;;5062021;28;20207;-88
2021/11/12 12:21:37;;;;;;;43.42;28.60;;;7.20;99.90;;;;;;5063757;28;20198;-88
2021/11/12 12:33:38;;;;;;;41.28;30.00;;;7.20;99.90;;;;;;5063325;28;20193;-87
2021/11/12 13:22:05;;;;;;;47.78;32.90;;;7.50;99.90;;;;;;5068263;28;20233;-82
2021/11/12 13:24:36;;;;;;;46.92;32.03;;;7.40;99.90;;;;;;5066336;28;20249;-84
2021/11/12 13:27:06;;;;;;;47.40;30.98;;;7.30;99.90;;;;;;5066284;28;20226;-83
2021/11/12 13:29:36;;;;;;;49.92;32.60;;;7.30;99.90;;;;;;5067887;28;20208;-83
2021/11/12 13:32:06;;;;;;;48.72;33.08;;;7.30;99.90;;;;;;5068100;28;20194;-82
2021/11/12 13:34:42;;;;;;;51.13;35.85;;;7.50;99.90;;;;;;5069685;28;20293;-82
2021/11/12 13:37:26;;;;;;;50.55;32.65;;;7.40;99.90;;;;;;5068704;28;20231;-83
2021/11/12 13:40:17;;;;;;;54.63;35.80;;;7.40;99.90;;;;;;5060920;28;20199;-82
2021/11/12 13:42:47;;;;;;;33.42;22.50;;;7.30;99.90;;;;;;5053354;28;20207;-81
2021/11/12 13:45:17;;;;;;;50.47;33.28;;;7.20;99.90;;;;;;5073405;28;20206;-82
2021/11/12 13:47:45;;;;;;;41.75;25.75;;;7.40;99.90;;;;;;5066163;28;20203;-80
2021/11/12 13:50:15;;;;;;;49.85;33.42;;;7.10;99.90;;;;;;5070029;28;20233;-81
2021/11/12 13:52:44;;;;;;;52.78;32.30;;;7.10;99.90;;;;;;5070371;28;20304;-82
2021/11/12 13:55:15;;;;;;;50.60;32.60;;;6.90;99.90;;;;;;5061014;28;20237;-81
2021/11/12 13:57:55;;;;;;;50.70;32.45;;;6.90;99.90;;;;;;5064422;28;20306;-82
2021/11/12 14:00:26;;;;;;;52.20;35.63;;;7.00;99.90;;;;;;5068660;28;20217;-82
2021/11/12 14:02:58;;;;;;;49.20;34.25;;;7.00;99.90;;;;;;5072701;28;20218;-83
2021/11/12 14:05:27;;;;;;;50.95;31.70;;;7.00;99.90;;;;;;5059771;28;20186;-81
2021/11/12 14:08:06;;;;;;;49.95;33.03;;;7.10;99.90;;;;;;5058382;28;20202;-80
2021/11/12 14:10:37;;;;;;;60.90;36.88;;;7.30;99.90;;;;;;5058254;28;20515;-83
2021/11/12 14:13:06;;;;;;;46.47;32.25;;;7.10;99.90;;;;;;5060338;28;20285;-81
2021/11/12 14:15:38;;;;;;;50.30;33.35;;;7.20;99.90;;;;;;5058857;28;20292;-81
2021/11/12 14:21:13;;;;;;;52.65;33.67;;;7.00;99.90;;;;;;5062339;28;20201;-81
2021/11/12 14:24:09;;;;;;;51.53;32.15;;;7.00;99.90;;;;;;5069889;28;20190;-82
2021/11/12 14:26:40;;;;;;;54.47;34.10;;;7.20;99.90;;;;;;5058266;28;20309;-81
2021/11/12 14:29:10;;;;;;;46.20;28.92;;;7.30;99.90;;;;;;5065880;28;20605;-83
2021/11/12 14:34:41;;;;;;;50.08;32.05;;;7.30;99.90;;;;;;5057765;28;20193;-80
2021/11/12 14:37:13;;;;;;;43.10;24.83;;;7.20;99.90;;;;;;5065759;28;20320;-81
2021/11/12 14:39:56;;;;;;;43.40;23.65;;;7.10;99.90;;;;;;5058793;28;20196;-81
2021/11/12 14:45:16;;;;;;;49.78;25.77;;;6.60;99.90;;;;;;5061627;28;20188;-80
2021/11/12 14:47:54;;;;;;;47.25;28.45;;;6.50;99.90;;;;;;5057447;28;20619;-79
2021/11/12 14:50:30;;;;;;;51.25;31.02;;;6.60;99.90;;;;;;5066222;28;20191;-79
2021/11/12 14:53:15;;;;;;;52.42;32.90;;;6.40;99.90;;;;;;5064440;28;20201;-80
2021/11/12 14:55:44;;;;;;;39.53;23.08;;;6.50;99.90;;;;;;5056898;28;20234;-80
2021/11/12 14:58:14;;;;;;;50.95;30.98;;;6.10;99.90;;;;;;5057005;28;20218;-80
2021/11/12 15:00:41;;;;;;;43.03;27.25;;;6.40;99.90;;;;;;5055838;28;20206;-80
2021/11/12 15:03:09;;;;;;;43.80;24.88;;;6.20;99.90;;;;;;5055869;28;20229;-80
2021/11/12 15:05:37;;;;;;;49.65;26.90;;;6.10;99.90;;;;;;5061649;28;20278;-80
2021/11/12 15:08:11;;;;;;;38.45;24.45;;;6.20;99.90;;;;;;5060628;28;20233;-80
2021/11/12 15:10:39;;;;;;;37.47;22.48;;;6.00;99.90;;;;;;5059810;28;20720;-80
2021/11/12 15:13:06;;;;;;;42.75;25.42;;;5.90;99.90;;;;;;5063161;28;20206;-80
2021/11/12 15:15:33;;;;;;;42.38;25.30;;;5.70;99.90;;;;;;5060546;28;20206;-80
2021/11/12 15:18:04;;;;;;;47.83;28.67;;;5.70;99.90;;;;;;5061909;28;20273;-80
2021/11/12 15:20:31;;;;;;;44.78;27.38;;;5.70;99.90;;;;;;5068534;28;20198;-80
2021/11/12 15:23:18;;;;;;;44.33;24.17;;;5.50;99.90;;;;;;5059715;28;20210;-80
2021/11/12 15:26:00;;;;;;;28.55;13.50;;;5.60;99.90;;;;;;5060253;28;20320;-80
2021/11/12 15:28:34;;;;;;;44.50;25.45;;;5.60;99.90;;;;;;5066395;28;20202;-80
2021/11/12 15:31:06;;;;;;;43.83;25.80;;;5.50;99.90;;;;;;5060249;28;20262;-81
2021/11/12 15:33:39;;;;;;;43.80;27.02;;;5.70;99.90;;;;;;5061760;28;20699;-80
2021/11/12 15:36:10;;;;;;;48.35;27.20;;;5.50;99.90;;;;;;5063304;28;20268;-81
2021/11/12 15:38:44;;;;;;;36.97;20.52;;;5.70;99.90;;;;;;5061678;28;20245;-80
2021/11/12 15:41:20;;;;;;;35.63;20.67;;;5.60;99.90;;;;;;5062083;28;20244;-80
2021/11/12 15:43:55;;;;;;;41.38;25.73;;;5.40;99.90;;;;;;5060700;28;20534;-79
2021/11/12 15:46:24;;;;;;;42.20;25.05;;;5.50;99.90;;;;;;5058285;28;20226;-79
2021/11/12 15:48:51;;;;;;;40.80;24.55;;;5.50;99.90;;;;;;5059582;28;20206;-79
2021/11/12 15:51:32;;;;;;;41.03;26.60;;;5.40;99.90;;;;;;5060704;28;20206;-82
2021/11/12 15:54:13;;;;;;;47.83;29.98;;;5.30;99.90;;;;;;5062475;28;20190;-79
2021/11/12 15:57:12;;;;;;;45.72;25.50;;;5.20;99.90;;;;;;5065245;28;20237;-79
2021/11/12 15:59:53;;;;;;;46.00;26.77;;;5.30;99.90;;;;;;5065162;28;20312;-80
2021/11/12 16:13:34;;;;;;;42.88;26.00;;;5.70;99.90;;;;;;5018786;28;20215;-88
2021/11/12 16:16:23;;;;;;;48.28;23.42;;;5.60;99.90;;;;;;5007847;28;20232;-89
2021/11/12 16:18:53;;;;;;;51.47;25.02;;;5.90;99.90;;;;;;5046235;28;20230;-78
2021/11/12 16:26:56;;;;;;;44.28;24.40;;;5.50;99.90;;;;;;5070855;28;20237;-89
2021/11/12 16:29:43;;;;;;;42.88;25.90;;;5.60;99.90;;;;;;5062406;28;20213;-80
2021/11/12 16:32:18;;;;;;;42.95;27.77;;;5.60;99.90;;;;;;5061059;28;20608;-79
2021/11/12 16:34:47;;;;;;;40.92;25.13;;;5.50;99.90;;;;;;5060505;28;20186;-80
2021/11/12 16:37:17;;;;;;;45.53;24.55;;;5.50;99.90;;;;;;5062239;28;20582;-79
2021/11/12 16:39:47;;;;;;;45.70;28.05;;;5.60;99.90;;;;;;5060405;28;20206;-79
2021/11/12 16:42:28;;;;;;;57.13;33.05;;;5.50;99.90;;;;;;5079520;22;20317;-77
2021/11/12 16:45:01;;;;;;;49.95;29.48;;;5.40;99.90;;;;;;5055637;28;20597;-80
2021/11/12 16:47:39;;;;;;;53.90;33.38;;;5.30;99.90;;;;;;5057604;28;20213;-77
2021/11/12 16:53:05;;;;;;;52.75;31.15;;;5.20;99.90;;;;;;5053050;28;20222;-77
2021/11/12 16:58:35;;;;;;;53.15;33.10;;;5.30;99.90;;;;;;5012957;28;20227;-76
2021/11/12 17:06:37;;;;;;;53.67;31.42;;;5.70;99.90;;;;;;5039461;28;20285;-78
2021/11/12 17:11:49;;;;;;;49.35;29.45;;;5.50;99.90;;;;;;5055014;28;20717;-78
2021/11/12 17:14:37;;;;;;;55.17;31.65;;;5.30;99.90;;;;;;5056468;28;20202;-77